Time;durP1;ratioP1;P1;durP2;ratioP2;P2;SDS_P1;SDS_P2;PMS_P1;PMS_P2;Temp;Humidity;BMP_temperature;BMP_pressure;BME280_temperature;BME280_humidity;BME280_pressure;Samples;Min_cycle;Max_cycle;Signal;HPM_P1;HPM_P2
2023/09/26 00:01:44;;;;;;;16.08;6.60;;;;;;;17.16;100.00;101127.78;5588087;31;33948;-70
2023/09/26 00:04:47;;;;;;;13.62;6.12;;;;;;;17.07;100.00;101127.09;5589160;31;34651;-70
2023/09/26 00:07:51;;;;;;;11.95;6.35;;;;;;;17.02;100.00;101123.31;5589101;31;34516;-70
2023/09/26 00:10:54;;;;;;;9.57;5.93;;;;;;;17.07;100.00;101123.56;5589230;31;33854;-70
2023/09/26 00:13:57;;;;;;;11.60;6.30;;;;;;;17.03;100.00;101119.62;5589018;31;33763;-71
2023/09/26 00:17:00;;;;;;;14.00;6.30;;;;;;;17.00;100.00;101122.66;5588824;31;33879;-70
2023/09/26 00:20:27;;;;;;;14.13;6.25;;;;;;;16.91;100.00;101125.47;5588999;31;34519;-70
2023/09/26 00:23:31;;;;;;;12.68;6.20;;;;;;;16.84;100.00;101127.28;5577910;31;33855;-71
2023/09/26 00:26:34;;;;;;;14.65;6.20;;;;;;;16.77;100.00;101129.03;5588791;31;33810;-71
2023/09/26 00:29:37;;;;;;;12.85;6.87;;;;;;;16.78;100.00;101128.03;5588884;31;34499;-70
2023/09/26 00:32:40;;;;;;;12.48;6.22;;;;;;;16.84;100.00;101129.13;5588743;31;34696;-70
2023/09/26 00:35:43;;;;;;;12.10;6.68;;;;;;;16.81;100.00;101126.81;5588980;31;34126;-70
2023/09/26 00:38:46;;;;;;;15.43;7.03;;;;;;;16.81;100.00;101127.63;5588440;31;33908;-70
2023/09/26 00:41:50;;;;;;;16.58;6.80;;;;;;;16.80;100.00;101122.47;5588421;31;34012;-71
2023/09/26 00:44:55;;;;;;;16.23;6.50;;;;;;;16.87;100.00;101128.72;5588237;31;33937;-71
2023/09/26 00:47:58;;;;;;;19.25;7.30;;;;;;;16.84;100.00;101121.09;5588231;31;34433;-70
2023/09/26 00:51:02;;;;;;;13.77;6.85;;;;;;;16.89;100.00;101126.72;5588390;31;33889;-71
2023/09/26 00:54:09;;;;;;;16.33;7.07;;;;;;;16.85;100.00;101126.22;5588226;31;34819;-71
2023/09/26 00:57:12;;;;;;;13.75;7.62;;;;;;;16.90;100.00;101125.66;5588152;31;34562;-71
2023/09/26 01:00:19;;;;;;;17.62;6.82;;;;;;;16.91;100.00;101120.12;5588452;31;33798;-71
2023/09/26 01:03:22;;;;;;;12.07;7.45;;;;;;;16.94;100.00;101122.41;5574299;31;35463;-71
2023/09/26 01:06:25;;;;;;;20.08;7.20;;;;;;;16.90;100.00;101118.44;5587970;31;34557;-71
2023/09/26 01:09:29;;;;;;;16.33;7.25;;;;;;;16.92;100.00;101120.94;5587945;31;35342;-71
2023/09/26 01:12:33;;;;;;;13.57;6.82;;;;;;;16.87;100.00;101123.38;5574277;31;33941;-71
2023/09/26 01:15:39;;;;;;;14.57;7.07;;;;;;;16.76;100.00;101119.34;5590716;31;33823;-71
2023/09/26 01:18:43;;;;;;;11.48;7.35;;;;;;;16.79;100.00;101116.31;5590578;31;34770;-71
2023/09/26 01:21:45;;;;;;;18.08;7.05;;;;;;;16.88;100.00;101125.03;5590682;31;34536;-71
2023/09/26 01:24:49;;;;;;;14.52;7.03;;;;;;;16.87;100.00;101124.22;5576808;31;33929;-71
2023/09/26 01:27:53;;;;;;;14.18;7.15;;;;;;;16.84;100.00;101121.91;5590606;31;34400;-71
2023/09/26 01:30:57;;;;;;;14.43;7.60;;;;;;;16.85;100.00;101125.41;5590839;31;33806;-71
2023/09/26 01:34:00;;;;;;;15.98;7.82;;;;;;;16.78;100.00;101120.00;5590428;31;34134;-71
2023/09/26 01:37:06;;;;;;;18.23;7.85;;;;;;;16.78;100.00;101127.19;5590548;31;33918;-71
2023/09/26 01:40:11;;;;;;;14.02;7.43;;;;;;;16.71;100.00;101116.41;5590422;31;33898;-71
2023/09/26 01:43:14;;;;;;;13.80;7.75;;;;;;;16.75;100.00;101125.72;5576738;31;34647;-71
2023/09/26 01:46:22;;;;;;;17.17;7.80;;;;;;;16.75;100.00;101116.88;5590315;31;34430;-71
2023/09/26 01:49:27;;;;;;;13.35;7.47;;;;;;;16.75;100.00;101127.59;5590322;31;33993;-72
2023/09/26 01:52:32;;;;;;;17.23;7.68;;;;;;;16.71;100.00;101124.44;5590582;31;33827;-71
2023/09/26 01:55:35;;;;;;;16.20;7.93;;;;;;;16.65;100.00;101133.25;5590248;31;33824;-71
2023/09/26 01:58:38;;;;;;;15.38;7.65;;;;;;;16.66;100.00;101131.38;5590181;31;34719;-71
2023/09/26 02:01:41;;;;;;;18.67;7.32;;;;;;;16.55;100.00;101130.00;5590238;31;34446;-71
2023/09/26 02:04:45;;;;;;;14.65;7.85;;;;;;;16.49;100.00;101120.03;5590143;31;34070;-71
2023/09/26 02:07:48;;;;;;;15.23;8.02;;;;;;;16.53;100.00;101124.00;5590200;31;33964;-71
2023/09/26 02:10:52;;;;;;;13.62;7.80;;;;;;;16.64;100.00;101128.91;5590108;31;33830;-71
2023/09/26 02:13:55;;;;;;;15.80;7.87;;;;;;;16.61;100.00;101121.22;5590207;31;34080;-71
2023/09/26 02:16:58;;;;;;;15.55;8.02;;;;;;;16.62;100.00;101120.22;5576468;31;33900;-71
2023/09/26 02:20:04;;;;;;;15.45;8.05;;;;;;;16.63;100.00;101123.72;5590320;31;33808;-71
2023/09/26 02:23:08;;;;;;;17.10;8.40;;;;;;;16.59;100.00;101122.44;5590309;31;33657;-71
2023/09/26 02:26:17;;;;;;;14.77;8.05;;;;;;;16.53;100.00;101124.84;5589127;31;34467;-71
2023/09/26 02:29:20;;;;;;;14.85;7.85;;;;;;;16.48;100.00;101134.44;5590195;31;33754;-71
2023/09/26 02:32:23;;;;;;;12.93;8.10;;;;;;;16.43;100.00;101126.97;5589971;31;34521;-71
2023/09/26 02:35:26;;;;;;;17.37;8.27;;;;;;;16.45;100.00;101134.84;5589790;31;34027;-71
2023/09/26 02:38:29;;;;;;;19.45;8.60;;;;;;;16.51;100.00;101134.06;5575967;31;33749;-71
2023/09/26 02:41:32;;;;;;;16.58;8.10;;;;;;;16.37;100.00;101138.44;5589783;31;34509;-71
2023/09/26 02:44:35;;;;;;;14.15;7.85;;;;;;;16.32;100.00;101134.66;5589614;31;33810;-71
2023/09/26 02:47:38;;;;;;;16.55;8.35;;;;;;;16.25;100.00;101136.44;5576087;31;33812;-71
2023/09/26 02:50:41;;;;;;;19.02;8.77;;;;;;;16.21;100.00;101140.50;5576010;31;33989;-71
2023/09/26 02:53:44;;;;;;;18.50;9.13;;;;;;;16.36;100.00;101139.44;5589712;31;34886;-71
2023/09/26 02:56:48;;;;;;;16.40;8.65;;;;;;;16.53;100.00;101140.91;5589757;31;33859;-71
2023/09/26 02:59:50;;;;;;;14.80;9.07;;;;;;;16.59;100.00;101133.16;5575803;31;34590;-71
2023/09/26 03:02:54;;;;;;;15.68;8.60;;;;;;;16.62;100.00;101132.78;5589717;31;33918;-70
2023/09/26 03:05:59;;;;;;;13.48;9.18;;;;;;;16.61;100.00;101147.19;5589525;31;34082;-71
2023/09/26 03:09:02;;;;;;;15.43;8.48;;;;;;;16.63;100.00;101137.12;5589894;31;34466;-70
2023/09/26 03:12:06;;;;;;;15.00;8.10;;;;;;;16.61;100.00;101141.81;5589610;31;33763;-71
2023/09/26 03:15:10;;;;;;;18.70;8.63;;;;;;;16.58;100.00;101129.66;5589591;31;33933;-70
2023/09/26 03:18:13;;;;;;;15.93;8.75;;;;;;;16.60;100.00;101138.34;5589702;31;33295;-70
2023/09/26 03:21:16;;;;;;;14.30;8.05;;;;;;;16.57;100.00;101144.03;5589880;31;33871;-70
2023/09/26 03:24:19;;;;;;;13.15;8.20;;;;;;;16.59;100.00;101141.22;5589428;31;33845;-71
2023/09/26 03:27:23;;;;;;;15.05;8.15;;;;;;;16.49;100.00;101134.28;5589856;31;33989;-71
2023/09/26 03:30:26;;;;;;;16.85;8.48;;;;;;;16.46;100.00;101136.47;5589546;31;34558;-71
2023/09/26 03:33:29;;;;;;;18.90;8.43;;;;;;;16.42;100.00;101146.72;5589451;31;33879;-71
2023/09/26 03:36:32;;;;;;;19.20;8.52;;;;;;;16.48;100.00;101140.62;5589176;31;33974;-71
2023/09/26 03:39:35;;;;;;;15.50;8.27;;;;;;;16.47;100.00;101140.81;5589382;31;34879;-71
2023/09/26 03:42:38;;;;;;;20.10;8.38;;;;;;;16.42;100.00;101141.38;5589265;31;34470;-71
2023/09/26 03:45:41;;;;;;;16.87;8.43;;;;;;;16.37;100.00;101143.78;5589010;31;33796;-71
2023/09/26 03:48:44;;;;;;;13.48;8.45;;;;;;;16.33;100.00;101147.03;5589251;31;33856;-71
2023/09/26 03:51:47;;;;;;;20.40;9.15;;;;;;;16.31;100.00;101149.06;5589112;31;34062;-71
2023/09/26 03:54:50;;;;;;;18.35;8.38;;;;;;;16.28;100.00;101150.25;5589101;31;34546;-71
2023/09/26 03:57:53;;;;;;;16.23;8.30;;;;;;;16.29;100.00;101141.22;5589161;31;34573;-71
2023/09/26 04:01:07;;;;;;;22.27;9.38;;;;;;;16.36;100.00;101144.00;5589090;31;34506;-71
2023/09/26 04:04:10;;;;;;;16.92;8.95;;;;;;;16.34;100.00;101141.50;5588968;31;34582;-71
2023/09/26 04:07:13;;;;;;;17.15;8.60;;;;;;;16.29;100.00;101146.56;5575062;31;34279;-71
2023/09/26 04:10:17;;;;;;;15.52;8.60;;;;;;;16.30;100.00;101142.06;5589007;31;33952;-71
2023/09/26 04:13:20;;;;;;;13.75;8.70;;;;;;;16.38;100.00;101141.94;5588949;31;34473;-70
2023/09/26 04:16:23;;;;;;;17.55;8.73;;;;;;;16.38;100.00;101145.44;5575093;31;34891;-71
2023/09/26 04:19:25;;;;;;;15.23;8.85;;;;;;;16.38;100.00;101144.63;5588686;31;34093;-71
2023/09/26 04:22:31;;;;;;;15.52;9.20;;;;;;;16.35;100.00;101151.19;5588896;31;34639;-71
2023/09/26 04:25:34;;;;;;;19.00;8.93;;;;;;;16.37;100.00;101151.81;5588891;31;33777;-71
2023/09/26 04:28:37;;;;;;;20.23;9.05;;;;;;;16.35;100.00;101155.72;5588514;31;33921;-71
2023/09/26 04:31:40;;;;;;;18.25;9.18;;;;;;;16.28;100.00;101154.78;5574750;31;34922;-71
2023/09/26 04:34:43;;;;;;;16.40;9.40;;;;;;;16.24;100.00;101154.34;5574644;31;33792;-72
2023/09/26 04:37:48;;;;;;;16.08;9.52;;;;;;;16.26;100.00;101152.31;5574385;31;34134;-71
2023/09/26 04:40:51;;;;;;;14.50;9.13;;;;;;;16.26;100.00;101162.19;5588326;31;34466;-72
2023/09/26 04:43:54;;;;;;;21.08;9.43;;;;;;;16.20;100.00;101168.28;5588443;31;33795;-72
2023/09/26 04:46:57;;;;;;;15.15;9.10;;;;;;;16.22;100.00;101169.75;5588419;31;33897;-71
2023/09/26 04:50:00;;;;;;;17.45;9.65;;;;;;;16.23;100.00;101176.75;5590403;31;34532;-70
2023/09/26 04:53:03;;;;;;;18.08;9.40;;;;;;;16.21;100.00;101170.78;5576147;31;33816;-71
2023/09/26 04:56:07;;;;;;;17.65;9.45;;;;;;;16.24;100.00;101174.91;5590770;31;34558;-71
2023/09/26 04:59:10;;;;;;;20.80;10.35;;;;;;;16.22;100.00;101175.09;5591120;31;33881;-71
2023/09/26 05:02:13;;;;;;;17.23;9.52;;;;;;;16.25;100.00;101174.75;5590543;31;33910;-71
2023/09/26 05:05:17;;;;;;;17.40;9.32;;;;;;;16.24;100.00;101172.25;5590638;31;33829;-71
2023/09/26 05:08:20;;;;;;;17.48;9.25;;;;;;;16.26;100.00;101175.56;5590373;31;34035;-71
2023/09/26 05:11:23;;;;;;;14.13;9.05;;;;;;;16.32;100.00;101181.00;5590458;31;33841;-70
2023/09/26 05:14:26;;;;;;;19.60;9.93;;;;;;;16.33;100.00;101184.50;5590560;31;33842;-71
2023/09/26 05:17:29;;;;;;;15.55;9.27;;;;;;;16.35;100.00;101182.50;5590682;31;33946;-71
2023/09/26 05:20:32;;;;;;;18.02;9.23;;;;;;;16.37;100.00;101181.28;5576701;31;34575;-71
2023/09/26 05:23:36;;;;;;;16.00;9.02;;;;;;;16.43;100.00;101183.22;5590587;31;33880;-71
2023/09/26 05:26:39;;;;;;;17.90;9.63;;;;;;;16.50;100.00;101180.62;5590343;31;33765;-71
2023/09/26 05:29:42;;;;;;;17.98;9.43;;;;;;;16.53;100.00;101180.25;5590062;31;34413;-71
2023/09/26 05:32:45;;;;;;;21.83;9.63;;;;;;;16.60;100.00;101183.06;5590153;31;34496;-71
2023/09/26 05:35:48;;;;;;;21.37;9.77;;;;;;;16.63;100.00;101188.88;5590132;31;33881;-71
2023/09/26 05:38:51;;;;;;;20.40;9.20;;;;;;;16.67;100.00;101184.78;5589406;31;35116;-71
2023/09/26 05:41:54;;;;;;;18.10;9.30;;;;;;;16.73;100.00;101186.72;5589906;31;33831;-71
2023/09/26 05:44:57;;;;;;;15.23;9.02;;;;;;;16.84;100.00;101188.09;5575508;31;34510;-71
2023/09/26 05:48:00;;;;;;;18.55;9.65;;;;;;;16.87;100.00;101180.50;5589835;31;34031;-71
2023/09/26 05:51:03;;;;;;;19.30;9.07;;;;;;;16.98;100.00;101183.69;5589586;31;33964;-72
2023/09/26 05:54:06;;;;;;;19.55;9.40;;;;;;;17.01;100.00;101185.97;5589473;31;33851;-72
2023/09/26 05:57:30;;;;;;;13.95;8.55;;;;;;;17.08;100.00;101187.72;5589971;31;34526;-72
2023/09/26 06:00:36;;;;;;;19.83;9.18;;;;;;;17.19;100.00;101197.09;5575572;31;33911;-71
2023/09/26 06:03:39;;;;;;;19.40;8.88;;;;;;;17.23;100.00;101185.00;5589832;31;33512;-70
2023/09/26 06:06:43;;;;;;;23.50;8.95;;;;;;;17.35;100.00;101184.28;5575858;31;33768;-72
2023/09/26 06:09:48;;;;;;;20.62;8.77;;;;;;;17.49;100.00;101187.91;5589893;31;34037;-71
2023/09/26 06:13:10;;;;;;;26.20;8.85;;;;;;;17.58;100.00;101192.09;5567646;31;33820;-71
2023/09/26 06:16:13;;;;;;;18.83;8.70;;;;;;;17.68;100.00;101192.63;5589831;31;34571;-71
2023/09/26 06:19:16;;;;;;;17.77;8.82;;;;;;;17.67;100.00;101187.50;5589584;31;33979;-71
2023/09/26 06:22:20;;;;;;;17.58;8.30;;;;;;;17.76;100.00;101186.31;5589638;31;33851;-70
2023/09/26 06:25:23;;;;;;;20.45;8.15;;;;;;;17.80;100.00;101184.91;5589998;31;34507;-71
2023/09/26 06:28:27;;;;;;;20.95;8.73;;;;;;;17.91;100.00;101187.03;5589823;31;33735;-71
2023/09/26 06:31:30;;;;;;;18.58;8.25;;;;;;;17.96;100.00;101181.88;5589695;31;34472;-72
2023/09/26 06:34:35;;;;;;;15.23;8.25;;;;;;;18.15;100.00;101185.75;5590035;31;33982;-72
2023/09/26 06:37:38;;;;;;;17.08;8.23;;;;;;;18.17;100.00;101189.06;5589497;31;33844;-71
2023/09/26 06:40:41;;;;;;;16.77;8.35;;;;;;;18.23;100.00;101169.47;5589374;31;34884;-71
2023/09/26 06:43:44;;;;;;;17.62;7.45;;;;;;;18.48;100.00;101186.75;5589238;31;34495;-71
2023/09/26 06:46:48;;;;;;;19.48;8.50;;;;;;;18.60;100.00;101184.34;5589274;31;34550;-71
2023/09/26 06:49:52;;;;;;;13.90;7.60;;;;;;;18.67;100.00;101185.22;5589643;31;33750;-71
2023/09/26 06:52:55;;;;;;;19.02;8.45;;;;;;;18.70;100.00;101179.41;5576092;31;34713;-71
2023/09/26 06:56:03;;;;;;;18.00;8.43;;;;;;;18.66;100.00;101183.53;5589403;31;34314;-71
2023/09/26 06:59:06;;;;;;;18.80;7.93;;;;;;;18.72;100.00;101185.44;5589494;31;34745;-71
2023/09/26 07:02:09;;;;;;;13.68;7.37;;;;;;;18.81;100.00;101192.28;5589598;31;33794;-71
2023/09/26 07:05:12;;;;;;;17.85;7.55;;;;;;;18.97;100.00;101194.62;5589409;31;34556;-71
2023/09/26 07:08:15;;;;;;;26.52;7.85;;;;;;;19.11;100.00;101187.41;5576047;31;34675;-71
2023/09/26 07:11:19;;;;;;;14.23;7.32;;;;;;;19.18;100.00;101187.41;5574990;31;34143;-71
2023/09/26 07:14:21;;;;;;;15.77;7.43;;;;;;;19.45;100.00;101189.16;5588883;31;33924;-71
2023/09/26 07:17:25;;;;;;;16.27;7.07;;;;;;;19.76;100.00;101191.19;5589464;31;33314;-71
2023/09/26 07:20:28;;;;;;;10.70;6.35;;;;;;;20.44;100.00;101197.94;5589617;31;34459;-71
2023/09/26 07:23:36;;;;;;;15.13;6.32;;;;;;;21.69;100.00;101194.53;5589827;31;33954;-71
2023/09/26 07:26:40;;;;;;;13.38;5.50;;;;;;;22.55;100.00;101194.53;5575663;31;34006;-71
2023/09/26 07:29:47;;;;;;;15.57;5.50;;;;;;;23.69;100.00;101199.78;5589407;31;33904;-71
2023/09/26 07:32:50;;;;;;;17.90;5.50;;;;;;;24.16;100.00;101207.91;5575564;31;34002;-71
2023/09/26 07:35:53;;;;;;;10.35;5.72;;;;;;;24.54;100.00;101208.25;5575375;31;34587;-70
2023/09/26 07:38:56;;;;;;;12.05;6.10;;;;;;;22.37;100.00;101202.63;5589206;31;34366;-70
2023/09/26 07:41:59;;;;;;;14.73;5.78;;;;;;;22.61;100.00;101217.13;5575142;31;34055;-70
2023/09/26 07:45:03;;;;;;;14.52;6.10;;;;;;;22.76;100.00;101207.59;5583887;31;156349;-70
2023/09/26 07:48:07;;;;;;;15.75;5.40;;;;;;;22.75;100.00;101213.25;5588801;31;34494;-70
2023/09/26 07:51:10;;;;;;;11.70;5.07;;;;;;;24.05;100.00;101216.87;5575406;31;34480;-70
2023/09/26 07:54:16;;;;;;;14.18;5.65;;;;;;;24.01;100.00;101221.94;5589085;31;33941;-71
2023/09/26 07:57:19;;;;;;;14.48;6.20;;;;;;;23.92;100.00;101215.22;5589277;31;33881;-71
2023/09/26 08:00:23;;;;;;;15.77;5.18;;;;;;;26.00;96.42;101228.31;5589301;31;34399;-72
2023/09/26 08:03:26;;;;;;;13.43;5.40;;;;;;;25.76;86.93;101227.66;5588954;31;33825;-69
2023/09/26 08:06:29;;;;;;;12.05;5.60;;;;;;;24.35;100.00;101235.78;5589105;31;34005;-68
2023/09/26 08:09:32;;;;;;;12.52;5.07;;;;;;;26.52;86.23;101223.37;5588849;31;34082;-69
2023/09/26 08:12:36;;;;;;;11.93;5.18;;;;;;;25.26;93.94;101224.88;5588613;31;35126;-71
2023/09/26 08:15:39;;;;;;;18.85;5.20;;;;;;;24.86;97.68;101221.38;5575061;31;33895;-70
2023/09/26 08:18:42;;;;;;;10.77;4.87;;;;;;;25.94;89.17;101221.16;5588733;31;34741;-70
2023/09/26 08:21:45;;;;;;;9.70;4.68;;;;;;;26.85;80.36;101227.03;5588606;31;34531;-70
2023/09/26 08:24:48;;;;;;;6.75;4.28;;;;;;;27.10;75.58;101225.44;5587614;31;33829;-70
2023/09/26 08:27:51;;;;;;;14.82;4.85;;;;;;;28.09;72.23;101227.66;5588725;31;33849;-70
2023/09/26 08:30:57;;;;;;;8.73;4.68;;;;;;;30.46;59.63;101219.09;5588435;31;34244;-70
2023/09/26 08:34:00;;;;;;;17.87;4.68;;;;;;;29.64;62.08;101223.03;5574739;31;34582;-71
2023/09/26 08:37:03;;;;;;;10.57;4.75;;;;;;;31.20;54.55;101215.47;5574860;31;33946;-71
2023/09/26 08:40:10;;;;;;;10.48;4.30;;;;;;;30.88;53.52;101215.09;5587873;31;33869;-69
2023/09/26 08:43:15;;;;;;;10.18;3.72;;;;;;;30.13;54.08;101214.25;5588003;31;33937;-70
2023/09/26 08:46:19;;;;;;;12.27;4.72;;;;;;;26.90;67.83;101213.50;5588178;31;34105;-69
2023/09/26 08:49:22;;;;;;;11.68;4.90;;;;;;;26.72;71.05;101204.53;5588330;31;34548;-70
2023/09/26 08:52:26;;;;;;;11.07;5.37;;;;;;;26.00;78.02;101201.09;5588379;31;33790;-68
2023/09/26 08:55:29;;;;;;;20.40;5.22;;;;;;;25.09;88.16;101202.28;5587724;31;33934;-70
2023/09/26 08:58:33;;;;;;;11.55;5.00;;;;;;;24.42;91.89;101198.47;5574347;31;33937;-69
2023/09/26 09:01:36;;;;;;;13.73;5.20;;;;;;;24.47;90.85;101196.69;5587633;31;34016;-68
2023/09/26 09:04:43;;;;;;;13.43;5.15;;;;;;;24.07;97.05;101188.47;5587759;31;33869;-69
2023/09/26 09:07:47;;;;;;;19.48;5.87;;;;;;;23.93;98.76;101189.78;5573912;31;34620;-68
2023/09/26 09:10:54;;;;;;;12.52;4.93;;;;;;;23.76;100.00;101200.50;5587889;31;33887;-68
2023/09/26 09:13:58;;;;;;;14.87;5.50;;;;;;;23.26;100.00;101185.66;5574042;31;33985;-69
2023/09/26 09:17:01;;;;;;;11.35;5.07;;;;;;;23.13;100.00;101197.53;5587882;31;35020;-68
2023/09/26 09:20:04;;;;;;;13.00;5.65;;;;;;;23.25;100.00;101181.28;5573862;31;34898;-68
2023/09/26 09:23:07;;;;;;;11.70;5.55;;;;;;;23.28;100.00;101186.25;5587275;31;33755;-68
2023/09/26 09:26:11;;;;;;;14.00;5.50;;;;;;;23.20;100.00;101187.41;5587116;31;34414;-68
2023/09/26 09:29:23;;;;;;;11.98;5.00;;;;;;;23.23;100.00;101186.97;5573403;31;34459;-68
2023/09/26 09:32:26;;;;;;;13.25;5.75;;;;;;;23.25;97.32;101182.13;5587296;31;33778;-68
2023/09/26 09:35:29;;;;;;;14.90;5.40;;;;;;;23.34;99.83;101174.47;5575470;31;33821;-68
2023/09/26 09:38:32;;;;;;;231.23;13.43;;;;;;;23.50;96.53;101181.16;5576882;31;33886;-69
2023/09/26 09:41:37;;;;;;;14.02;5.10;;;;;;;23.77;97.52;101171.50;5592546;31;33628;-68
2023/09/26 09:44:41;;;;;;;16.58;6.10;;;;;;;23.75;94.57;101170.94;5590102;31;35073;-67
2023/09/26 09:47:47;;;;;;;14.00;4.95;;;;;;;23.79;94.68;101162.09;5590284;31;34655;-69
2023/09/26 09:50:54;;;;;;;13.38;4.50;;;;;;;23.90;87.71;101160.44;5590304;31;33999;-68
2023/09/26 09:54:00;;;;;;;10.95;4.55;;;;;;;24.01;75.63;101165.00;5590131;31;33864;-69
2023/09/26 09:57:10;;;;;;;23.80;4.82;;;;;;;23.96;73.68;101162.22;5591659;31;33993;-71
2023/09/26 10:00:14;;;;;;;20.92;5.18;;;;;;;24.14;75.61;101153.09;5590461;31;33826;-69
2023/09/26 10:03:18;;;;;;;14.90;4.43;;;;;;;24.23;74.88;101149.81;5589974;31;34518;-68
2023/09/26 10:06:23;;;;;;;11.20;4.72;;;;;;;24.37;71.30;101136.81;5590106;31;33698;-69
2023/09/26 10:09:29;;;;;;;14.35;4.37;;;;;;;24.55;72.20;101136.62;5576634;31;34015;-69
2023/09/26 10:12:32;;;;;;;20.30;4.75;;;;;;;24.63;73.46;101128.13;5590044;31;34370;-68
2023/09/26 10:16:11;;;;;;;10.23;4.35;;;;;;;24.45;72.97;101127.47;5576071;31;34100;-68
2023/09/26 10:19:18;;;;;;;14.23;5.20;;;;;;;24.51;73.44;101130.03;5576070;31;33481;-69
2023/09/26 10:22:35;;;;;;;12.68;4.55;;;;;;;24.78;69.57;101121.34;5590123;31;33960;-69
2023/09/26 10:25:38;;;;;;;14.20;4.45;;;;;;;24.86;65.20;101115.50;5589741;31;34042;-69
2023/09/26 10:28:42;;;;;;;9.32;4.32;;;;;;;24.88;63.92;101121.56;5589288;31;33957;-68
2023/09/26 10:31:54;;;;;;;9.88;4.35;;;;;;;24.70;64.05;101125.25;5590021;31;33824;-68
2023/09/26 10:34:58;;;;;;;11.90;4.35;;;;;;;24.79;63.04;101114.81;5589494;31;34857;-68
2023/09/26 10:38:10;;;;;;;14.10;4.45;;;;;;;24.86;64.54;101116.34;5589960;31;34748;-69
2023/09/26 10:41:14;;;;;;;8.95;4.12;;;;;;;25.14;67.33;101101.91;5589784;31;33797;-69
2023/09/26 10:44:16;;;;;;;11.57;4.25;;;;;;;25.22;63.69;101103.41;5589270;31;34637;-69
2023/09/26 10:47:23;;;;;;;12.68;4.47;;;;;;;25.24;59.39;101102.09;5588903;31;34144;-69
2023/09/26 10:50:28;;;;;;;11.00;4.10;;;;;;;25.89;58.78;101101.47;5589765;31;33897;-69
2023/09/26 10:53:31;;;;;;;11.45;4.20;;;;;;;29.07;48.13;101099.47;5589645;31;33892;-69
2023/09/26 10:56:34;;;;;;;14.85;3.83;;;;;;;32.30;39.72;101100.25;5589652;31;33918;-69
2023/09/26 10:59:37;;;;;;;14.02;3.90;;;;;;;34.79;35.11;101104.84;5589816;31;33890;-69
2023/09/26 11:02:42;;;;;;;13.18;3.80;;;;;;;38.14;30.17;101099.88;5575914;31;33746;-70
2023/09/26 11:05:46;;;;;;;8.27;3.47;;;;;;;38.68;28.78;101106.31;5575559;31;33775;-68
2023/09/26 11:08:50;;;;;;;17.50;3.58;;;;;;;35.85;30.72;101099.38;5589058;31;33599;-67
2023/09/26 11:11:57;;;;;;;7.15;3.37;;;;;;;36.99;29.89;101097.25;5576622;31;34563;-69
2023/09/26 11:15:00;;;;;;;17.37;3.60;;;;;;;36.42;29.37;101093.81;5588746;31;33854;-71
2023/09/26 11:18:04;;;;;;;14.95;3.42;;;;;;;40.94;25.87;101097.59;5588249;31;34202;-71
2023/09/26 11:21:07;;;;;;;13.57;3.75;;;;;;;40.40;25.48;101084.06;5588938;31;33838;-70
2023/09/26 11:24:31;;;;;;;11.10;3.20;;;;;;;39.69;26.12;101081.81;5589689;31;34080;-71
2023/09/26 11:27:41;;;;;;;7.40;3.00;;;;;;;40.57;24.84;101069.09;5588891;31;34856;-70
2023/09/26 11:30:44;;;;;;;12.60;2.90;;;;;;;40.43;25.49;101071.47;5589820;31;34557;-70
2023/09/26 11:33:47;;;;;;;12.63;3.20;;;;;;;39.29;25.21;101059.41;5589118;31;33892;-71
2023/09/26 11:36:51;;;;;;;11.73;3.10;;;;;;;38.97;26.20;101063.81;5588412;31;34549;-70
2023/09/26 11:39:55;;;;;;;10.45;3.17;;;;;;;41.28;24.73;101062.72;5589456;31;33865;-69
2023/09/26 11:43:00;;;;;;;10.43;3.47;;;;;;;42.59;23.07;101063.06;5589501;31;34212;-70
2023/09/26 11:46:03;;;;;;;7.78;3.40;;;;;;;38.35;26.36;101051.94;5589407;31;33873;-69
2023/09/26 11:49:06;;;;;;;15.80;3.33;;;;;;;38.45;26.66;101043.22;5589129;31;34185;-69
2023/09/26 11:52:09;;;;;;;8.57;3.47;;;;;;;40.06;25.17;101045.66;5589183;31;33927;-70
2023/09/26 11:55:17;;;;;;;13.80;3.58;;;;;;;39.75;25.38;101041.53;5589220;31;34478;-70
2023/09/26 11:58:20;;;;;;;15.50;3.42;;;;;;;39.27;26.05;101042.25;5588932;31;34753;-70
2023/09/26 12:01:24;;;;;;;9.48;3.55;;;;;;;38.66;25.92;101036.53;5588887;31;34677;-69
2023/09/26 12:04:28;;;;;;;15.32;3.42;;;;;;;38.56;26.10;101034.16;5588981;31;34447;-71
2023/09/26 12:07:31;;;;;;;9.57;3.70;;;;;;;36.23;28.13;101029.75;5575190;31;33854;-68
2023/09/26 12:10:34;;;;;;;9.35;3.30;;;;;;;38.22;26.84;101024.16;5589011;31;33917;-70
2023/09/26 12:13:37;;;;;;;7.65;3.28;;;;;;;41.85;22.32;101020.37;5588866;31;33904;-71
2023/09/26 12:16:42;;;;;;;10.40;3.33;;;;;;;41.63;21.96;101019.91;5588830;31;33837;-70
2023/09/26 12:19:48;;;;;;;9.95;3.17;;;;;;;40.57;23.38;101019.81;5588940;31;34844;-71
2023/09/26 12:22:58;;;;;;;9.38;3.20;;;;;;;43.19;20.90;101019.56;5574819;31;34512;-70
2023/09/26 12:26:01;;;;;;;13.40;3.70;;;;;;;43.45;20.21;101024.41;5576089;31;33843;-69
2023/09/26 12:29:04;;;;;;;12.52;3.90;;;;;;;38.83;23.76;101007.00;5588935;31;34554;-69
2023/09/26 12:32:08;;;;;;;11.23;3.62;;;;;;;37.41;25.86;100995.94;5574944;31;33893;-69
2023/09/26 12:35:11;;;;;;;13.73;3.10;;;;;;;41.14;22.20;101001.94;5574780;31;34524;-70
2023/09/26 12:38:15;;;;;;;11.50;3.70;;;;;;;44.30;19.15;101006.91;5588541;31;34432;-70
2023/09/26 12:41:18;;;;;;;11.57;3.40;;;;;;;43.28;19.57;101004.19;5574575;31;33800;-71
2023/09/26 12:44:24;;;;;;;15.48;3.42;;;;;;;42.86;20.26;101000.63;5574886;31;33829;-70
2023/09/26 12:47:27;;;;;;;10.02;3.20;;;;;;;41.68;21.28;100990.94;5588745;31;33786;-68
2023/09/26 12:50:31;;;;;;;13.15;3.12;;;;;;;42.86;20.51;100995.03;5574673;31;34117;-70
2023/09/26 12:53:34;;;;;;;9.70;3.47;;;;;;;40.47;22.15;100983.38;5574522;31;33918;-70
2023/09/26 12:56:37;;;;;;;18.00;3.33;;;;;;;39.73;22.63;100979.94;5588323;31;33998;-69
2023/09/26 12:59:46;;;;;;;10.95;2.90;;;;;;;41.34;21.29;100983.34;5575133;31;33752;-69
2023/09/26 13:02:50;;;;;;;10.25;3.08;;;;;;;41.33;21.58;100981.72;5574166;31;33684;-70
2023/09/26 13:05:53;;;;;;;9.88;2.90;;;;;;;41.61;20.99;100972.06;5561230;31;34656;-70
2023/09/26 13:08:59;;;;;;;12.57;3.03;;;;;;;38.45;24.20;100974.75;5588058;31;34493;-70
2023/09/26 13:12:03;;;;;;;8.63;3.20;;;;;;;36.13;26.45;100964.59;5590575;31;34433;-69
2023/09/26 13:15:08;;;;;;;13.30;4.50;;;;;;;33.59;28.19;100959.28;5590771;31;34702;-69
2023/09/26 13:18:11;;;;;;;8.35;3.30;;;;;;;32.50;30.70;100959.06;5576975;31;33781;-69
2023/09/26 13:21:15;;;;;;;11.35;3.12;;;;;;;31.34;31.76;100957.91;5590704;31;34021;-68
2023/09/26 13:24:18;;;;;;;8.82;3.33;;;;;;;30.14;33.75;100945.78;5590392;31;33746;-69
2023/09/26 13:27:21;;;;;;;12.37;3.60;;;;;;;29.82;33.80;100942.66;5590420;31;33993;-68
2023/09/26 13:30:26;;;;;;;11.18;3.10;;;;;;;29.58;35.74;100947.16;5590463;31;34614;-68
2023/09/26 13:33:28;;;;;;;9.35;3.00;;;;;;;29.88;35.44;100937.97;5589913;31;33866;-68
2023/09/26 13:36:32;;;;;;;15.38;3.30;;;;;;;30.39;33.42;100942.03;5590025;31;34502;-69
2023/09/26 13:39:36;;;;;;;10.25;3.08;;;;;;;32.53;30.85;100947.50;5589748;31;33429;-68
2023/09/26 13:42:39;;;;;;;9.55;3.08;;;;;;;34.31;28.07;100947.53;5589975;31;33859;-68
2023/09/26 13:45:42;;;;;;;8.20;3.12;;;;;;;34.38;28.23;100947.91;5576428;31;33856;-68
2023/09/26 13:48:45;;;;;;;11.18;3.00;;;;;;;34.14;28.53;100950.94;5576644;31;33953;-71
2023/09/26 13:51:50;;;;;;;16.52;3.33;;;;;;;32.53;29.87;100943.94;5589854;31;33770;-68
2023/09/26 13:54:53;;;;;;;15.25;3.08;;;;;;;30.84;30.74;100949.06;5589729;31;34515;-68
2023/09/26 13:57:56;;;;;;;10.77;3.37;;;;;;;29.89;31.24;100945.09;5589548;31;35443;-68
2023/09/26 14:00:59;;;;;;;15.90;3.03;;;;;;;29.42;32.71;100945.56;5589435;31;33930;-69